Burns, WY (82053)

1:24 PM MDT on July 24, 2014 (GMT -0600)
WB7GR (KWYBURNS2) Elev 5788 ft | 41.15 °N, 104.54 °W | Change Station

Current weather conditions updated 5 minutes ago

Partly Cloudy
Partly Cloudy
93.3 °F
Feels Like 90 °F
N
14.0
Wind Variable Wind from SW
Gusts 23.0 mph

Today is forecast to be Much Warmer than yesterday.

Today
High -- | Low -- °F
--% Chance of Precip.
Yesterday
High -- | Low -- °F
Precip. -- in
5:45 AM 8:21 PM
Waning Crescent, 4% visible
Pressure 30.04 in
Visibility 10.0 miles
Clouds Clear
Heat Index 90 °F
Dew Point 47 °F
Humidity 20%
Rainfall 0.00 in
Snow Depth Not available.
UV 12 out of 12
Pollen 7.40 out of 12
Air Quality Not available.
Flu Activity Not available.
METAR K82V 241915Z AUTO 26015G21KT 10SM CLR 36/05 A3004 RMK AO2 LTG DSNT E

More Conditions Fewer Conditions

Pressure 30.04 in
Visibility 10.0 miles
Clouds Clear
Heat Index 90 °F
Dew Point 47 °F
Humidity 20%
Rainfall 0.00 in
Snow Depth Not available.
UV 12 out of 12
Pollen 7.40 out of 12
Air Quality Not available.
Flu Activity Not available.
METAR K82V 241915Z AUTO 26015G21KT 10SM CLR 36/05 A3004 RMK AO2 LTG DSNT E

More Conditions Fewer Conditions

10-Day Weather Forecast

Almanac

Astronomy

Jul. 24, 2014 Rise Set
Actual Time 5:45 AM MDT 8:21 PM MDT
Civil Twilight 5:13 AM MDT 8:53 PM MDT
Nautical Twilight 4:33 AM MDT 9:33 PM MDT
Astronomical Twilight 3:48 AM MDT 10:17 PM MDT
Moon 3:55 AM MDT 6:38 PM MDT
Length of Visible Light 15h 39m
Length of Day
14h 36m
Tomorrow will be 1m 50s shorter.
Waning Crescent, 4% of the Moon is Illuminated
Today
Waning Crescent
Jul 26
New
Aug 3
First Quarter
Aug 10
Full
Aug 17
Last Quarter

Today's Extremes

State Highs State Lows

Community

WunderPhotos

Upload Photos

1,737,094 photos uploaded!

Nearby

Snow Depth

Station Depth Elevation
Crow Creek 0 in 8330 ft
Old Battle 0 in 9920 ft
Casper Mountain 0 in 7850 ft
Grave Springs 0 in 8550 ft
Townsend Creek 1 in 8700 ft

Earthquake Activity

City Distance Mag. Time & Date
No recent earthquake activity has been reported nearby.
Minimum magnitude displayed is 2.5.

Coastal Water Temperatures

Place Temperature
No Stations Reporting

Nearby Weather Stations

Station Location Temp. Heat Index Dew Point Humidity Wind Precip. Elev Updated Type
MesoWest EGBRT1 , Pine Bluffs, WY 92 °F 88 °F - - NW  at  12 mph 0.00 in / hr 5152 ft 12:00 PM MDT MADIS
WB7GR, Burns, WY 93.3 °F 90 °F 47 °F 20% SW  at  14.0 mph 0.00 in / hr 5788 ft 1:19 PM MDT Normal
MesoWest ARCHR2 , Cheyenne, WY 89 °F 86 °F - - North  at  - 0.00 in / hr 5944 ft 12:00 PM MDT MADIS
WY Farm and Ranch, Midway, Cheyenne, WY 94.3 °F 92 °F 52 °F 24% North  at  0.0 mph 0.00 in / hr 5705 ft 1:24 PM MDT Rapid Fire
Cheyenne Ridge, Cheyenne, WY 89.9 °F 87 °F 47 °F 23% NW  at  17.0 mph 0.00 in / hr 6156 ft 1:21 PM MDT Normal

Show More Stations Show Fewer Stations